createdAt,value
2023-03-30T00:04:23.278Z,64.09
2023-03-30T00:14:44.553Z,64.17
2023-03-30T00:25:08.863Z,64.44
2023-03-30T00:35:32.914Z,64.59
2023-03-30T00:45:57.419Z,64.75
2023-03-30T00:56:24.628Z,65.68
2023-03-30T01:06:47.519Z,65.48
2023-03-30T01:17:17.592Z,65.97
2023-03-30T01:27:50.595Z,65.64
2023-03-30T01:38:18.040Z,66.47
2023-03-30T01:48:47.412Z,66.28
2023-03-30T01:59:18.214Z,66.95
2023-03-30T02:09:41.031Z,66.66
2023-03-30T02:20:02.512Z,66.20
2023-03-30T02:30:23.916Z,66.23
2023-03-30T02:41:02.473Z,66.08
2023-03-30T02:51:45.776Z,66.16
2023-03-30T03:02:15.591Z,66.33
2023-03-30T03:12:39.822Z,66.45
2023-03-30T03:23:01.553Z,66.32
2023-03-30T03:33:27.712Z,66.31
2023-03-30T03:44:03.492Z,66.38
2023-03-30T03:54:24.860Z,66.42
2023-03-30T04:04:47.652Z,66.94
2023-03-30T04:15:09.750Z,66.69
2023-03-30T04:25:58.381Z,67.10
2023-03-30T04:36:58.791Z,66.61
2023-03-30T04:47:26.684Z,66.87
2023-03-30T04:58:14.712Z,66.64
2023-03-30T05:09:05.160Z,67.14
2023-03-30T05:19:56.547Z,67.66
2023-03-30T05:30:39.212Z,67.77
2023-03-30T05:41:20.831Z,68.14
2023-03-30T05:52:02.698Z,68.52
2023-03-30T06:02:45.051Z,68.23
2023-03-30T06:13:10.808Z,67.87
2023-03-30T06:23:41.462Z,67.98
2023-03-30T06:34:10.256Z,67.82
2023-03-30T06:44:34.847Z,67.37
2023-03-30T06:55:04.702Z,66.68
2023-03-30T07:05:29.072Z,66.26
2023-03-30T07:16:06.462Z,66.25
2023-03-30T07:26:29.707Z,65.91
2023-03-30T07:37:01.202Z,65.70
2023-03-30T07:47:26.936Z,65.93
2023-03-30T07:57:48.691Z,65.92
2023-03-30T08:08:10.972Z,65.81
2023-03-30T08:18:33.642Z,66.06
2023-03-30T08:28:55.040Z,66.41
2023-03-30T08:39:16.374Z,65.99
2023-03-30T08:49:43.033Z,65.98
2023-03-30T09:00:20.243Z,65.82
2023-03-30T09:10:47.305Z,66.52
2023-03-30T09:21:13.302Z,66.27
2023-03-30T09:31:40.906Z,66.51
2023-03-30T09:42:05.286Z,66.88
2023-03-30T09:52:28.847Z,66.25
2023-03-30T10:02:58.335Z,66.31
2023-03-30T10:13:20.345Z,66.43
2023-03-30T10:23:44.993Z,66.33
2023-03-30T10:34:34.166Z,66.23
2023-03-30T10:45:00.586Z,66.66
2023-03-30T10:55:29.289Z,66.00
2023-03-30T11:05:53.364Z,66.14
2023-03-30T11:16:17.468Z,65.86
2023-03-30T11:26:43.365Z,66.36
2023-03-30T11:37:15.534Z,66.44
2023-03-30T11:47:59.026Z,66.77
2023-03-30T11:58:37.416Z,67.03
2023-03-30T12:09:06.191Z,66.61
2023-03-30T12:19:49.133Z,66.59
2023-03-30T12:30:32.064Z,66.58
2023-03-30T12:41:02.547Z,67.36
2023-03-30T12:51:43.661Z,66.92
2023-03-30T13:02:26.339Z,66.77
2023-03-30T13:12:49.829Z,66.51
2023-03-30T13:23:11.265Z,66.85
2023-03-30T13:33:37.450Z,67.28
2023-03-30T13:44:17.372Z,67.74
2023-03-30T13:54:40.198Z,67.46
2023-03-30T14:05:33.292Z,67.66
2023-03-30T14:15:55.093Z,68.48
2023-03-30T14:26:19.231Z,68.01
2023-03-30T14:36:40.789Z,67.69
2023-03-30T14:47:02.135Z,68.14
2023-03-30T14:57:23.916Z,68.72
2023-03-30T15:07:52.144Z,68.99
2023-03-30T15:18:20.226Z,68.64
2023-03-30T15:28:48.126Z,69.21
2023-03-30T15:39:33.933Z,69.48
2023-03-30T15:49:55.806Z,69.36
2023-03-30T16:00:26.163Z,68.96
2023-03-30T16:10:48.993Z,68.38
2023-03-30T16:21:11.167Z,68.27
2023-03-30T16:31:33.084Z,68.87
2023-03-30T16:41:55.453Z,68.14
2023-03-30T16:52:16.922Z,67.91
2023-03-30T17:02:38.357Z,68.52
2023-03-30T17:13:00.763Z,68.00
2023-03-30T17:23:24.533Z,68.00
2023-03-30T17:33:46.971Z,67.60
2023-03-30T17:44:08.057Z,67.25
2023-03-30T17:54:30.591Z,66.67
2023-03-30T18:04:52.001Z,66.58
2023-03-30T18:15:13.588Z,67.04
2023-03-30T18:25:38.924Z,67.01
2023-03-30T18:36:07.985Z,66.53
2023-03-30T18:46:29.673Z,66.75
2023-03-30T18:56:51.591Z,67.13
2023-03-30T19:07:12.885Z,66.86
2023-03-30T19:17:34.086Z,66.95
2023-03-30T19:28:03.153Z,66.75
2023-03-30T19:38:25.164Z,66.95
2023-03-30T19:48:46.511Z,66.70
2023-03-30T19:59:08.335Z,66.80
2023-03-30T20:09:29.642Z,66.70
2023-03-30T20:19:50.618Z,66.57
2023-03-30T20:30:12.803Z,66.99
2023-03-30T20:40:33.868Z,67.29
2023-03-30T20:50:56.337Z,67.38
2023-03-30T21:01:25.706Z,67.33
2023-03-30T21:11:47.218Z,67.41
2023-03-30T21:22:08.490Z,67.44
2023-03-30T21:32:31.288Z,67.41
2023-03-30T21:42:52.846Z,67.54
2023-03-30T21:53:14.251Z,68.30
2023-03-30T22:03:35.737Z,68.11
2023-03-30T22:13:57.037Z,67.90
2023-03-30T22:24:19.370Z,68.60
2023-03-30T22:34:41.146Z,68.47
2023-03-30T22:45:03.417Z,68.10
2023-03-30T22:55:25.116Z,67.87
2023-03-30T23:05:53.064Z,68.20
2023-03-30T23:16:15.847Z,68.33
2023-03-30T23:26:36.921Z,68.27
2023-03-30T23:37:01.804Z,68.83
2023-03-30T23:47:23.406Z,68.81
2023-03-30T23:57:45.664Z,69.21
